createdAt,value
2017-11-22T00:00:25.299Z,6.33
2017-11-22T00:02:53.649Z,6.40
2017-11-22T00:05:22.725Z,5.50
2017-11-22T00:07:51.073Z,5.87
2017-11-22T00:10:19.379Z,5.77
2017-11-22T00:12:47.709Z,6.30
2017-11-22T00:15:16.011Z,5.67
2017-11-22T00:17:44.337Z,6.57
2017-11-22T00:20:12.652Z,6.57
2017-11-22T00:22:40.985Z,6.50
2017-11-22T00:25:09.282Z,5.97
2017-11-22T00:27:38.364Z,4.90
2017-11-22T00:30:06.675Z,6.40
2017-11-22T00:32:35.013Z,6.47
2017-11-22T00:35:03.312Z,6.17
2017-11-22T00:37:32.655Z,6.13
2017-11-22T00:40:01.802Z,6.80
2017-11-22T00:42:30.152Z,6.30
2017-11-22T00:44:58.458Z,7.47
2017-11-22T00:47:27.534Z,6.70
2017-11-22T00:49:55.858Z,5.47
2017-11-22T00:52:24.158Z,6.50
2017-11-22T00:54:52.494Z,9.30
2017-11-22T00:57:20.807Z,8.80
2017-11-22T00:59:49.155Z,9.13
2017-11-22T01:02:17.512Z,8.57
2017-11-22T01:04:47.845Z,9.10
2017-11-22T01:07:16.150Z,9.20
2017-11-22T01:09:44.488Z,9.10
2017-11-22T01:12:12.788Z,8.50
2017-11-22T01:14:41.121Z,9.60
2017-11-22T01:17:09.424Z,11.07
2017-11-22T01:19:37.788Z,9.17
2017-11-22T01:22:06.138Z,9.47
2017-11-22T01:24:34.483Z,9.70
2017-11-22T01:27:03.545Z,9.03
2017-11-22T01:29:31.892Z,8.93
2017-11-22T01:32:00.215Z,10.80
2017-11-22T01:34:28.537Z,9.67
2017-11-22T01:36:56.847Z,9.23
2017-11-22T01:39:25.192Z,8.00
2017-11-22T01:41:53.496Z,8.77
2017-11-22T01:44:21.845Z,9.73
2017-11-22T01:46:50.170Z,9.83
2017-11-22T01:49:18.483Z,9.00
2017-11-22T01:51:46.831Z,10.73
2017-11-22T01:54:15.170Z,9.17
2017-11-22T01:56:43.505Z,10.13
2017-11-22T01:59:11.817Z,9.90
2017-11-22T02:01:40.159Z,9.60
2017-11-22T02:04:09.274Z,9.10
2017-11-22T02:06:38.396Z,8.77
2017-11-22T02:09:06.729Z,9.67
2017-11-22T02:11:35.076Z,10.40
2017-11-22T02:14:03.389Z,11.07
2017-11-22T02:16:31.729Z,11.30
2017-11-22T02:19:00.048Z,10.47
2017-11-22T02:21:28.380Z,10.00
2017-11-22T02:23:56.689Z,10.03
2017-11-22T02:26:25.017Z,10.47
2017-11-22T02:28:53.491Z,9.90
2017-11-22T02:31:22.604Z,9.17
2017-11-22T02:33:50.953Z,10.10
2017-11-22T02:36:20.056Z,9.60
2017-11-22T02:38:49.120Z,9.23
2017-11-22T02:41:17.466Z,8.40
2017-11-22T02:43:46.559Z,10.30
2017-11-22T02:46:14.902Z,9.37
2017-11-22T02:48:43.977Z,8.53
2017-11-22T02:51:12.305Z,9.43
2017-11-22T02:53:40.623Z,9.53
2017-11-22T02:56:08.985Z,7.57
2017-11-22T02:58:37.336Z,8.70
2017-11-22T03:01:05.644Z,8.47
2017-11-22T03:03:33.978Z,8.60
2017-11-22T03:06:03.081Z,8.70
2017-11-22T03:08:31.416Z,9.30
2017-11-22T03:10:59.721Z,8.40
2017-11-22T03:13:28.042Z,8.93
2017-11-22T03:15:56.385Z,8.20
2017-11-22T03:18:25.527Z,8.40
2017-11-22T03:20:53.808Z,8.47
2017-11-22T03:23:22.149Z,8.67
2017-11-22T03:25:51.220Z,8.33
2017-11-22T03:28:20.524Z,8.03
2017-11-22T03:30:48.986Z,8.00
2017-11-22T03:33:17.414Z,9.07
2017-11-22T03:35:45.712Z,8.73
2017-11-22T03:38:14.057Z,7.77
2017-11-22T03:40:43.143Z,8.40
2017-11-22T03:43:12.250Z,8.87
2017-11-22T03:45:40.591Z,8.30
2017-11-22T03:48:14.642Z,9.20
2017-11-22T03:50:49.770Z,8.30
2017-11-22T03:53:23.677Z,8.77
2017-11-22T03:55:51.978Z,8.93
2017-11-22T03:58:21.996Z,7.80
2017-11-22T04:00:50.334Z,7.57
2017-11-22T04:03:22.230Z,8.27
2017-11-22T04:05:56.226Z,7.80
2017-11-22T04:08:27.394Z,9.23
2017-11-22T04:11:05.944Z,7.83
2017-11-22T04:13:34.274Z,8.80
2017-11-22T04:16:03.355Z,8.40
2017-11-22T04:18:31.707Z,10.43
2017-11-22T04:21:00.033Z,7.63
2017-11-22T04:23:29.140Z,8.90
2017-11-22T04:25:57.895Z,7.70
2017-11-22T04:28:26.276Z,9.10
2017-11-22T04:30:54.622Z,8.50
2017-11-22T04:33:26.545Z,9.57
2017-11-22T04:35:55.651Z,10.37
2017-11-22T04:38:23.976Z,10.77
2017-11-22T04:40:52.313Z,10.30
2017-11-22T04:43:21.568Z,10.00
2017-11-22T04:45:49.913Z,10.63
2017-11-22T04:48:18.247Z,10.07
2017-11-22T04:50:47.360Z,9.97
2017-11-22T04:53:16.459Z,10.53
2017-11-22T04:55:44.797Z,10.13
2017-11-22T04:58:13.164Z,10.70
2017-11-22T05:00:41.475Z,10.67
2017-11-22T05:03:10.600Z,11.57
2017-11-22T05:05:38.937Z,10.40
2017-11-22T05:08:07.294Z,11.33
2017-11-22T05:10:35.619Z,13.17
2017-11-22T05:13:03.956Z,11.07
2017-11-22T05:15:32.299Z,10.30
2017-11-22T05:18:00.614Z,12.53
2017-11-22T05:20:28.972Z,12.37
2017-11-22T05:22:57.688Z,11.17
2017-11-22T05:25:26.031Z,11.50
2017-11-22T05:27:54.366Z,12.37
2017-11-22T05:30:23.484Z,11.93
2017-11-22T05:32:51.803Z,12.73
2017-11-22T05:35:20.145Z,13.87
2017-11-22T05:37:48.465Z,11.80
2017-11-22T05:40:16.838Z,10.90
2017-11-22T05:42:45.156Z,10.13
2017-11-22T05:45:14.274Z,10.60
2017-11-22T05:47:42.619Z,10.60
2017-11-22T05:50:10.955Z,10.77
2017-11-22T05:52:39.299Z,9.27
2017-11-22T05:55:08.377Z,10.20
2017-11-22T05:57:36.795Z,11.03
2017-11-22T06:00:05.115Z,10.67
2017-11-22T06:02:33.460Z,9.33
2017-11-22T06:05:01.790Z,10.43
2017-11-22T06:07:30.135Z,9.10
2017-11-22T06:09:59.373Z,10.40
2017-11-22T06:12:27.715Z,10.07
2017-11-22T06:14:56.046Z,10.50
2017-11-22T06:17:25.150Z,10.20
2017-11-22T06:19:54.236Z,11.00
2017-11-22T06:22:23.352Z,10.67
2017-11-22T06:24:51.671Z,8.63
2017-11-22T06:27:20.016Z,8.70
2017-11-22T06:29:50.128Z,8.83
2017-11-22T06:32:19.236Z,8.57
2017-11-22T06:34:47.568Z,12.93
2017-11-22T06:37:15.918Z,12.47
2017-11-22T06:39:44.230Z,11.27
2017-11-22T06:42:12.570Z,10.37
2017-11-22T06:44:40.881Z,9.63
2017-11-22T06:47:09.213Z,9.50
2017-11-22T06:49:37.551Z,10.60
2017-11-22T06:52:06.680Z,10.20
2017-11-22T06:54:34.989Z,9.77
2017-11-22T06:57:03.314Z,10.40
2017-11-22T06:59:32.432Z,10.27
2017-11-22T07:02:08.652Z,9.83
2017-11-22T07:04:37.005Z,9.43
2017-11-22T07:07:05.332Z,9.87
2017-11-22T07:09:33.699Z,8.80
2017-11-22T07:12:02.023Z,9.37
2017-11-22T07:14:30.365Z,9.77
2017-11-22T07:17:04.314Z,9.50
2017-11-22T07:19:32.661Z,10.20
2017-11-22T07:22:01.756Z,9.10
2017-11-22T07:24:30.855Z,10.67
2017-11-22T07:26:59.951Z,8.90
2017-11-22T07:29:29.049Z,8.70
2017-11-22T07:31:58.223Z,8.50
2017-11-22T07:34:26.568Z,8.57
2017-11-22T07:37:00.647Z,8.70
2017-11-22T07:39:29.744Z,9.67
2017-11-22T07:41:58.828Z,8.50
2017-11-22T07:44:27.174Z,8.23
2017-11-22T07:46:55.496Z,9.33
2017-11-22T07:49:23.863Z,9.63
2017-11-22T07:51:58.563Z,11.77
2017-11-22T07:54:26.914Z,11.73
2017-11-22T07:56:55.240Z,12.03
2017-11-22T07:59:23.582Z,11.90
2017-11-22T08:01:51.903Z,12.17
2017-11-22T08:04:21.009Z,12.30
2017-11-22T08:06:49.344Z,12.47
2017-11-22T08:09:17.711Z,11.43
2017-11-22T08:11:46.037Z,12.40
2017-11-22T08:14:15.134Z,14.53
2017-11-22T08:16:44.221Z,23.90
2017-11-22T08:19:12.549Z,14.90
2017-11-22T08:21:40.892Z,14.13
2017-11-22T08:24:09.976Z,14.50
2017-11-22T08:26:38.316Z,14.33
2017-11-22T08:29:06.639Z,13.33
2017-11-22T08:31:34.976Z,13.70
2017-11-22T08:34:03.306Z,14.60
2017-11-22T08:36:32.420Z,12.83
2017-11-22T08:39:00.740Z,13.93
2017-11-22T08:41:29.088Z,13.70
2017-11-22T08:43:57.412Z,13.30
2017-11-22T08:46:25.750Z,11.20
2017-11-22T08:48:54.068Z,11.63
2017-11-22T08:51:22.419Z,11.80
2017-11-22T08:53:50.743Z,11.60
2017-11-22T08:56:20.859Z,11.60
2017-11-22T08:58:49.179Z,11.40
2017-11-22T09:01:17.513Z,10.30
2017-11-22T09:03:45.839Z,13.53
2017-11-22T09:06:19.723Z,12.57
2017-11-22T09:08:48.807Z,14.07
2017-11-22T09:11:17.902Z,13.10
2017-11-22T09:13:46.238Z,15.43
2017-11-22T09:16:14.601Z,14.27
2017-11-22T09:18:42.931Z,15.50
2017-11-22T09:21:11.279Z,12.87
2017-11-22T09:23:39.596Z,14.43
2017-11-22T09:26:08.702Z,14.93
2017-11-22T09:28:37.802Z,14.90
2017-11-22T09:31:12.591Z,16.17
2017-11-22T09:33:40.912Z,14.87
2017-11-22T09:36:10.031Z,16.00
2017-11-22T09:38:38.351Z,16.13
2017-11-22T09:41:06.709Z,15.60
2017-11-22T09:43:35.019Z,15.17
2017-11-22T09:46:03.357Z,15.70
2017-11-22T09:48:31.686Z,14.53
2017-11-22T09:51:00.021Z,13.40
2017-11-22T09:53:28.347Z,15.90
2017-11-22T09:55:56.693Z,12.90
2017-11-22T09:58:25.027Z,13.17
2017-11-22T10:00:53.359Z,13.13
2017-11-22T10:03:21.688Z,12.97
2017-11-22T10:05:50.040Z,13.40
2017-11-22T10:08:18.358Z,12.20
2017-11-22T10:10:46.719Z,12.53
2017-11-22T10:13:15.042Z,12.17
2017-11-22T10:15:43.374Z,11.97
2017-11-22T10:18:11.700Z,10.87
2017-11-22T10:20:45.830Z,11.37
2017-11-22T10:23:20.544Z,10.87
2017-11-22T10:25:48.882Z,10.30
2017-11-22T10:28:17.213Z,10.70
2017-11-22T10:30:45.560Z,9.63
2017-11-22T10:33:14.792Z,9.00
2017-11-22T10:35:43.122Z,9.43
2017-11-22T10:38:11.439Z,10.47
2017-11-22T10:40:39.785Z,9.30
2017-11-22T10:43:08.115Z,8.43
2017-11-22T10:45:36.471Z,8.50
2017-11-22T10:48:04.810Z,9.37
2017-11-22T10:50:33.155Z,9.27
2017-11-22T10:53:01.479Z,8.80
2017-11-22T10:55:29.820Z,7.97
2017-11-22T10:57:58.922Z,7.40
2017-11-22T11:00:27.287Z,7.30
2017-11-22T11:02:55.617Z,7.03
2017-11-22T11:05:24.730Z,6.70
2017-11-22T11:07:53.054Z,6.80
2017-11-22T11:10:22.139Z,6.37
2017-11-22T11:12:51.264Z,6.10
2017-11-22T11:15:19.622Z,6.03
2017-11-22T11:17:47.959Z,5.67
2017-11-22T11:20:16.270Z,5.60
2017-11-22T11:22:44.615Z,5.30
2017-11-22T11:25:12.923Z,5.50
2017-11-22T11:27:41.286Z,5.30
2017-11-22T11:30:09.614Z,4.80
2017-11-22T11:32:38.007Z,6.73
2017-11-22T11:35:07.115Z,5.67
2017-11-22T11:37:35.479Z,5.00
2017-11-22T11:40:03.810Z,6.23
2017-11-22T11:42:32.159Z,5.83
2017-11-22T11:45:00.493Z,7.60
2017-11-22T11:47:29.597Z,5.00
2017-11-22T11:49:58.685Z,6.10
2017-11-22T11:52:27.792Z,4.90
2017-11-22T11:54:56.885Z,4.40
2017-11-22T11:57:26.023Z,5.10
2017-11-22T11:59:54.377Z,4.23
2017-11-22T12:02:22.704Z,4.20
2017-11-22T12:04:51.050Z,4.47
2017-11-22T12:07:19.371Z,4.20
2017-11-22T12:09:47.743Z,4.30
2017-11-22T12:12:16.071Z,4.70
2017-11-22T12:14:44.456Z,4.20
2017-11-22T12:17:12.785Z,3.63
2017-11-22T12:19:41.123Z,4.30
2017-11-22T12:22:13.365Z,4.37
2017-11-22T12:24:41.703Z,4.27
2017-11-22T12:27:10.010Z,4.13
2017-11-22T12:29:38.350Z,3.70
2017-11-22T12:32:06.663Z,4.10
2017-11-22T12:34:35.020Z,3.90
2017-11-22T12:37:03.358Z,3.70
2017-11-22T12:39:31.680Z,4.20
2017-11-22T12:42:00.027Z,3.27
2017-11-22T12:44:28.347Z,4.23
2017-11-22T12:46:56.718Z,3.43
2017-11-22T12:49:25.029Z,4.33
2017-11-22T12:51:54.136Z,5.50
2017-11-22T12:54:22.485Z,5.17
2017-11-22T12:56:50.827Z,4.80
2017-11-22T12:59:19.158Z,5.60
2017-11-22T13:01:48.282Z,4.20
2017-11-22T13:04:16.608Z,4.30
2017-11-22T13:06:44.955Z,4.60
2017-11-22T13:09:13.274Z,4.13
2017-11-22T13:11:41.600Z,5.53
2017-11-22T13:14:09.943Z,3.97
2017-11-22T13:16:39.029Z,4.27
2017-11-22T13:19:07.376Z,3.90
2017-11-22T13:21:35.696Z,4.00
2017-11-22T13:24:04.816Z,3.70
2017-11-22T13:26:33.148Z,3.53
2017-11-22T13:29:01.487Z,3.77
2017-11-22T13:31:29.811Z,3.93
2017-11-22T13:33:58.152Z,4.70
2017-11-22T13:36:26.497Z,3.97
2017-11-22T13:38:54.855Z,3.47
2017-11-22T13:41:29.961Z,3.67
2017-11-22T13:43:58.291Z,4.10
2017-11-22T13:46:26.636Z,3.90
2017-11-22T13:48:55.011Z,3.60
2017-11-22T13:51:23.333Z,3.90
2017-11-22T13:53:52.439Z,4.33
2017-11-22T13:56:20.760Z,3.40
2017-11-22T13:58:49.118Z,4.00
2017-11-22T14:01:17.435Z,3.60
2017-11-22T14:03:45.776Z,4.03
2017-11-22T14:06:14.111Z,3.57
2017-11-22T14:08:43.230Z,3.63
2017-11-22T14:11:11.575Z,3.00
2017-11-22T14:13:40.703Z,3.73
2017-11-22T14:16:09.042Z,3.47
2017-11-22T14:18:37.400Z,3.80
2017-11-22T14:21:05.735Z,4.27
2017-11-22T14:23:34.090Z,3.07
2017-11-22T14:26:03.183Z,3.57
2017-11-22T14:28:31.515Z,3.70
2017-11-22T14:30:59.886Z,3.50
2017-11-22T14:33:28.240Z,3.03
2017-11-22T14:35:56.564Z,3.47
2017-11-22T14:38:25.663Z,4.03
2017-11-22T14:40:53.996Z,3.27
2017-11-22T14:43:23.280Z,3.93
2017-11-22T14:45:51.606Z,3.43
2017-11-22T14:48:19.951Z,3.17
2017-11-22T14:50:49.031Z,4.07
2017-11-22T14:53:17.374Z,3.63
2017-11-22T14:55:45.712Z,3.83
2017-11-22T14:58:14.051Z,3.80
2017-11-22T15:00:42.384Z,3.30
2017-11-22T15:03:10.744Z,3.97
2017-11-22T15:05:39.075Z,3.63
2017-11-22T15:08:07.418Z,3.10
2017-11-22T15:10:35.739Z,4.10
2017-11-22T15:13:04.080Z,3.40
2017-11-22T15:15:32.426Z,3.90
2017-11-22T15:18:00.756Z,3.47
2017-11-22T15:20:29.080Z,4.53
2017-11-22T15:22:58.202Z,4.00
2017-11-22T15:25:26.535Z,5.17
2017-11-22T15:27:54.886Z,3.80
2017-11-22T15:30:23.212Z,3.73
2017-11-22T15:32:52.314Z,3.30
2017-11-22T15:35:21.410Z,3.23
2017-11-22T15:37:49.746Z,3.43
2017-11-22T15:40:18.122Z,3.13
2017-11-22T15:42:46.465Z,4.00
2017-11-22T15:45:14.783Z,6.10
2017-11-22T15:47:43.117Z,4.80
2017-11-22T15:50:12.203Z,4.03
2017-11-22T15:52:41.332Z,4.53
2017-11-22T15:55:09.648Z,4.23
2017-11-22T15:57:38.025Z,5.30
2017-11-22T16:00:06.337Z,4.20
2017-11-22T16:02:35.462Z,4.20
2017-11-22T16:05:03.780Z,5.97
2017-11-22T16:07:32.123Z,5.40
2017-11-22T16:10:00.442Z,6.50
2017-11-22T16:12:28.779Z,5.60
2017-11-22T16:14:57.087Z,4.57
2017-11-22T16:17:25.469Z,4.53
2017-11-22T16:19:53.778Z,4.83
2017-11-22T16:22:22.112Z,3.83
2017-11-22T16:24:50.419Z,3.73
2017-11-22T16:27:18.750Z,3.70
2017-11-22T16:29:47.100Z,3.50
2017-11-22T16:32:15.438Z,3.83
2017-11-22T16:34:43.757Z,4.63
2017-11-22T16:37:12.907Z,5.43
2017-11-22T16:39:41.215Z,6.07
2017-11-22T16:42:09.599Z,5.63
2017-11-22T16:44:38.695Z,4.10
2017-11-22T16:47:07.023Z,4.63
2017-11-22T16:49:35.330Z,6.10
2017-11-22T16:52:03.668Z,5.17
2017-11-22T16:54:32.042Z,5.00
2017-11-22T16:57:01.173Z,3.80
2017-11-22T16:59:29.480Z,5.00
2017-11-22T17:01:57.797Z,4.93
2017-11-22T17:04:26.099Z,5.60
2017-11-22T17:06:54.450Z,4.07
2017-11-22T17:09:23.551Z,5.87
2017-11-22T17:11:52.657Z,6.77
2017-11-22T17:14:20.987Z,5.20
2017-11-22T17:16:49.333Z,4.50
2017-11-22T17:19:17.709Z,7.83
2017-11-22T17:21:46.011Z,9.60
2017-11-22T17:24:14.352Z,31.10
2017-11-22T17:26:42.663Z,24.37
2017-11-22T17:29:10.997Z,8.60
2017-11-22T17:31:39.324Z,8.13
2017-11-22T17:34:07.706Z,5.47
2017-11-22T17:36:36.025Z,4.60
2017-11-22T17:39:05.179Z,5.53
2017-11-22T17:41:33.496Z,6.97
2017-11-22T17:44:02.600Z,6.10
2017-11-22T17:46:30.919Z,5.50
2017-11-22T17:48:59.249Z,5.80
2017-11-22T17:51:28.392Z,6.63
2017-11-22T17:53:56.740Z,5.17
2017-11-22T17:56:25.249Z,5.13
2017-11-22T17:58:53.607Z,4.90
2017-11-22T18:01:21.980Z,4.37
2017-11-22T18:03:51.048Z,4.60
2017-11-22T18:06:20.192Z,4.97
2017-11-22T18:08:48.494Z,4.37
2017-11-22T18:11:16.869Z,4.70
2017-11-22T18:13:45.241Z,5.27
2017-11-22T18:16:13.662Z,6.10
2017-11-22T18:18:42.018Z,5.27
2017-11-22T18:21:10.321Z,5.30
2017-11-22T18:23:39.440Z,5.90
2017-11-22T18:26:07.767Z,5.57
2017-11-22T18:28:36.095Z,5.10
2017-11-22T18:31:05.211Z,5.30
2017-11-22T18:33:33.583Z,5.43
2017-11-22T18:36:01.934Z,5.10
2017-11-22T18:38:30.307Z,4.67
2017-11-22T18:40:58.671Z,5.70
2017-11-22T18:43:26.986Z,7.67
2017-11-22T18:45:56.101Z,8.37
2017-11-22T18:48:24.463Z,8.07
2017-11-22T18:50:53.569Z,8.40
2017-11-22T18:53:22.662Z,9.90
2017-11-22T18:55:51.725Z,6.50
2017-11-22T18:58:20.094Z,6.20
2017-11-22T19:00:48.421Z,5.60
2017-11-22T19:03:20.050Z,7.10
2017-11-22T19:05:48.402Z,6.97
2017-11-22T19:08:16.752Z,7.73
2017-11-22T19:10:45.121Z,6.83
2017-11-22T19:13:13.457Z,6.17
2017-11-22T19:15:41.834Z,6.40
2017-11-22T19:18:10.184Z,6.30
2017-11-22T19:20:38.582Z,6.30
2017-11-22T19:23:06.943Z,6.10
2017-11-22T19:25:35.313Z,7.43
2017-11-22T19:28:03.678Z,5.77
2017-11-22T19:30:32.067Z,6.07
2017-11-22T19:33:00.366Z,5.93
2017-11-22T19:35:28.763Z,7.00
2017-11-22T19:37:57.113Z,7.23
2017-11-22T19:40:26.246Z,5.73
2017-11-22T19:42:54.552Z,5.50
2017-11-22T19:45:23.659Z,6.63
2017-11-22T19:47:52.769Z,5.90
2017-11-22T19:50:21.147Z,5.53
2017-11-22T19:52:49.500Z,6.17
2017-11-22T19:55:18.635Z,8.07
2017-11-22T19:57:46.989Z,6.50
2017-11-22T20:00:16.162Z,7.47
2017-11-22T20:02:44.542Z,8.07
2017-11-22T20:05:13.644Z,15.60
2017-11-22T20:07:47.872Z,10.97
2017-11-22T20:10:17.006Z,11.30
2017-11-22T20:12:45.411Z,10.67
2017-11-22T20:15:13.778Z,10.40
2017-11-22T20:17:42.160Z,7.67
2017-11-22T20:20:10.527Z,7.60
2017-11-22T20:22:38.892Z,8.40
2017-11-22T20:25:07.274Z,7.80
2017-11-22T20:27:35.656Z,9.20
2017-11-22T20:30:04.054Z,8.80
2017-11-22T20:32:32.403Z,8.43
2017-11-22T20:35:00.797Z,9.10
2017-11-22T20:37:29.163Z,9.30
2017-11-22T20:39:57.538Z,9.30
2017-11-22T20:42:25.908Z,8.57
2017-11-22T20:44:55.026Z,8.70
2017-11-22T20:47:23.401Z,8.60
2017-11-22T20:49:51.777Z,7.93
2017-11-22T20:52:20.115Z,7.70
2017-11-22T20:54:48.425Z,8.53
2017-11-22T20:57:17.574Z,7.40
2017-11-22T20:59:45.926Z,6.60
2017-11-22T21:02:14.296Z,7.60
2017-11-22T21:04:42.651Z,7.83
2017-11-22T21:07:11.735Z,7.27
2017-11-22T21:09:40.061Z,8.10
2017-11-22T21:12:08.426Z,7.53
2017-11-22T21:14:36.806Z,8.20
2017-11-22T21:17:05.176Z,7.50
2017-11-22T21:19:33.564Z,7.47
2017-11-22T21:22:01.886Z,8.80
2017-11-22T21:24:30.259Z,8.80
2017-11-22T21:26:58.622Z,8.33
2017-11-22T21:29:27.014Z,8.33
2017-11-22T21:31:55.323Z,8.30
2017-11-22T21:34:23.706Z,8.43
2017-11-22T21:36:52.066Z,7.33
2017-11-22T21:39:20.467Z,8.10
2017-11-22T21:41:49.589Z,7.40
2017-11-22T21:44:17.931Z,7.40
2017-11-22T21:46:46.294Z,8.23
2017-11-22T21:49:14.683Z,8.43
2017-11-22T21:51:43.058Z,8.30
2017-11-22T21:54:11.433Z,7.50
2017-11-22T21:56:39.816Z,7.73
2017-11-22T21:59:08.197Z,8.77
2017-11-22T22:01:36.591Z,7.50
2017-11-22T22:04:05.741Z,8.03
2017-11-22T22:06:34.118Z,8.07
2017-11-22T22:09:02.485Z,8.70
2017-11-22T22:11:30.878Z,6.97
2017-11-22T22:13:59.249Z,7.97
2017-11-22T22:16:27.625Z,8.20
2017-11-22T22:18:55.940Z,8.20
2017-11-22T22:21:24.326Z,8.40
2017-11-22T22:23:52.636Z,6.60
2017-11-22T22:26:21.750Z,8.57
2017-11-22T22:28:50.833Z,8.10
2017-11-22T22:31:19.211Z,8.63
2017-11-22T22:33:48.292Z,8.13
2017-11-22T22:36:16.664Z,7.00
2017-11-22T22:38:45.003Z,7.53
2017-11-22T22:41:14.098Z,8.43
2017-11-22T22:43:42.453Z,8.17
2017-11-22T22:46:11.553Z,8.47
2017-11-22T22:48:39.907Z,8.53
2017-11-22T22:51:08.258Z,8.63
2017-11-22T22:53:36.635Z,8.63
2017-11-22T22:56:04.963Z,8.20
2017-11-22T22:58:33.354Z,8.90
2017-11-22T23:01:01.712Z,6.60
2017-11-22T23:03:30.830Z,8.03
2017-11-22T23:05:59.160Z,8.40
2017-11-22T23:08:27.507Z,7.93
2017-11-22T23:10:55.868Z,9.03
2017-11-22T23:13:24.211Z,7.47
2017-11-22T23:15:52.530Z,9.10
2017-11-22T23:18:20.920Z,7.00
2017-11-22T23:20:49.316Z,8.20
2017-11-22T23:23:17.679Z,8.23
2017-11-22T23:25:46.047Z,8.20
2017-11-22T23:28:14.391Z,8.93
2017-11-22T23:30:42.730Z,8.97
2017-11-22T23:33:11.035Z,9.27
2017-11-22T23:35:39.378Z,8.30
2017-11-22T23:38:07.697Z,8.30
2017-11-22T23:40:36.022Z,9.00
2017-11-22T23:43:04.337Z,8.83
2017-11-22T23:45:32.687Z,9.03
2017-11-22T23:48:00.996Z,8.10
2017-11-22T23:50:29.424Z,7.30
2017-11-22T23:52:58.523Z,9.50
2017-11-22T23:55:26.875Z,9.40
2017-11-22T23:57:55.192Z,9.00
